createdAt,value
2023-04-29T00:02:30.449Z,11.33
2023-04-29T00:07:48.239Z,11.37
2023-04-29T00:13:07.512Z,11.34
2023-04-29T00:18:26.798Z,11.33
2023-04-29T00:23:46.014Z,11.26
2023-04-29T00:29:05.355Z,11.13
2023-04-29T00:39:43.656Z,11
2023-04-29T00:45:02.774Z,11.03
2023-04-29T00:50:22.106Z,10.95
2023-04-29T01:01:25.562Z,10.85
2023-04-29T01:12:03.289Z,10.85
2023-04-29T01:17:22.374Z,10.8
2023-04-29T01:22:41.614Z,10.8
2023-04-29T01:28:00.513Z,10.8
2023-04-29T01:33:20.044Z,10.86
2023-04-29T01:38:39.137Z,10.93
2023-04-29T01:43:57.996Z,10.92
2023-04-29T01:54:36.189Z,10.92
2023-04-29T01:59:55.422Z,10.92
2023-04-29T02:05:14.861Z,10.93
2023-04-29T02:10:34.170Z,10.88
2023-04-29T02:15:53.281Z,10.73
2023-04-29T02:21:12.954Z,10.68
2023-04-29T02:26:32.294Z,10.62
2023-04-29T02:37:09.770Z,10.41
2023-04-29T02:42:29.448Z,10.4
2023-04-29T02:47:48.509Z,10.35
2023-04-29T02:53:07.981Z,10.34
2023-04-29T03:03:46.056Z,10.32
2023-04-29T03:09:05.378Z,10.31
2023-04-29T03:14:24.235Z,10.3
2023-04-29T03:19:43.096Z,10.32
2023-04-29T03:25:02.378Z,10.34
2023-04-29T03:30:21.563Z,10.44
2023-04-29T03:35:40.643Z,10.44
2023-04-29T03:41:00.217Z,10.49
2023-04-29T03:46:19.841Z,10.54
2023-04-29T03:51:38.921Z,10.59
2023-04-29T03:56:57.903Z,10.59
2023-04-29T04:02:17.459Z,10.64
2023-04-29T04:12:56.952Z,10.71
2023-04-29T04:18:16.048Z,10.71
2023-04-29T04:23:34.785Z,10.73
2023-04-29T04:28:54.144Z,10.76
2023-04-29T04:34:13.662Z,10.79
2023-04-29T04:39:33.008Z,10.79
2023-04-29T04:44:52.167Z,10.82
2023-04-29T04:55:30.586Z,10.86
2023-04-29T05:00:50.257Z,10.89
2023-04-29T05:06:09.808Z,10.93
2023-04-29T05:11:28.911Z,10.98
2023-04-29T05:22:07.111Z,11
2023-04-29T05:27:26.502Z,11.06
2023-04-29T05:38:05.233Z,11.15
2023-04-29T05:43:24.268Z,11.18
2023-04-29T05:54:03.375Z,11.3
2023-04-29T05:59:22.474Z,11.36
2023-04-29T06:04:42.049Z,11.46
2023-04-29T06:10:00.368Z,11.6
2023-04-29T06:15:19.574Z,11.75
2023-04-29T06:20:38.557Z,11.85
2023-04-29T06:25:57.638Z,12.01
2023-04-29T06:36:35.981Z,12.28
2023-04-29T06:41:55.655Z,12.42
2023-04-29T06:47:15.365Z,12.56
2023-04-29T06:52:34.172Z,12.68
2023-04-29T06:57:53.388Z,12.78
2023-04-29T07:03:12.999Z,12.9
2023-04-29T07:08:31.482Z,12.95
2023-04-29T07:13:50.449Z,12.92
2023-04-29T07:19:09.311Z,12.89
2023-04-29T07:24:28.822Z,12.89
2023-04-29T07:29:48.158Z,13.17
2023-04-29T07:35:07.697Z,13.4
2023-04-29T07:45:45.932Z,13.46
2023-04-29T07:51:05.305Z,13.51
2023-04-29T07:56:25.199Z,13.54
2023-04-29T08:01:44.810Z,13.74
2023-04-29T08:07:03.728Z,13.89
2023-04-29T08:17:42.623Z,14.43
2023-04-29T08:23:01.377Z,14.66
2023-04-29T08:28:20.417Z,14.75
2023-04-29T08:33:39.377Z,14.59
2023-04-29T08:38:58.803Z,14.62
2023-04-29T08:44:18.332Z,14.51
2023-04-29T08:49:37.226Z,14.59
2023-04-29T09:00:15.490Z,15.1
2023-04-29T09:05:42.323Z,15.16
2023-04-29T09:10:53.859Z,15.23
2023-04-29T09:16:13.476Z,15.08
2023-04-29T09:21:32.287Z,14.73
2023-04-29T09:26:51.843Z,14.69
2023-04-29T09:32:10.654Z,14.77
2023-04-29T09:37:29.495Z,15.02
2023-04-29T09:42:49.049Z,15.4
2023-04-29T09:48:07.848Z,15.75
2023-04-29T09:58:45.918Z,16.35
2023-04-29T10:04:05.534Z,16.54
2023-04-29T10:09:24.721Z,16.54
2023-04-29T10:14:44.219Z,16.76
2023-04-29T10:20:03.011Z,17.17
2023-04-29T10:25:21.908Z,17.28
2023-04-29T10:35:59.788Z,17.27
2023-04-29T10:41:19.061Z,17.03
2023-04-29T10:46:37.952Z,16.86
2023-04-29T10:51:57.431Z,16.48
2023-04-29T10:57:16.876Z,16.26
2023-04-29T11:02:36.412Z,16.39
2023-04-29T11:07:55.655Z,16.75
2023-04-29T11:13:15.255Z,17.04
2023-04-29T11:18:34.820Z,17.11
2023-04-29T11:23:54.423Z,17.02
2023-04-29T11:29:13.878Z,16.86
2023-04-29T11:34:33.328Z,16.7
2023-04-29T11:39:52.591Z,16.45
2023-04-29T11:45:12.291Z,16.45
2023-04-29T11:50:31.168Z,16.62
2023-04-29T11:55:50.152Z,16.81
2023-04-29T12:01:08.870Z,17.1
2023-04-29T12:06:28.046Z,17.28
2023-04-29T12:17:06.534Z,17.29
2023-04-29T12:22:25.469Z,17.23
2023-04-29T12:27:44.636Z,17.06
2023-04-29T12:33:03.358Z,16.91
2023-04-29T12:38:22.469Z,16.59
2023-04-29T12:43:41.997Z,16.35
2023-04-29T12:49:01.033Z,16.19
2023-04-29T12:54:20.765Z,16.01
2023-04-29T12:59:39.670Z,15.88
2023-04-29T13:04:59.248Z,15.75
2023-04-29T13:15:36.934Z,15.71
2023-04-29T13:20:55.796Z,15.74
2023-04-29T13:26:14.931Z,15.82
2023-04-29T13:31:34.005Z,15.74
2023-04-29T13:36:53.138Z,15.67
2023-04-29T13:42:15.349Z,15.67
2023-04-29T13:47:31.754Z,15.85
2023-04-29T14:03:29.817Z,16.16
2023-04-29T14:08:48.600Z,16.08
2023-04-29T14:14:07.434Z,15.98
2023-04-29T14:19:27.032Z,15.87
2023-04-29T14:24:55.234Z,15.89
2023-04-29T14:30:05.297Z,16.02
2023-04-29T14:40:43.263Z,15.97
2023-04-29T14:46:02.568Z,15.74
2023-04-29T14:51:21.603Z,15.54
2023-04-29T14:56:41.113Z,15.44
2023-04-29T15:07:18.876Z,15.62
2023-04-29T15:12:38.387Z,15.69
2023-04-29T15:17:57.442Z,15.71
2023-04-29T15:23:16.315Z,15.75
2023-04-29T15:28:35.780Z,15.62
2023-04-29T15:33:54.977Z,15.44
2023-04-29T15:39:14.132Z,15.27
2023-04-29T15:44:33.343Z,15.1
2023-04-29T15:49:52.593Z,14.9
2023-04-29T15:55:11.286Z,14.8
2023-04-29T16:00:30.060Z,14.75
2023-04-29T16:05:49.402Z,14.69
2023-04-29T16:11:08.706Z,14.58
2023-04-29T16:16:27.997Z,14.48
2023-04-29T16:21:46.902Z,14.42
2023-04-29T16:27:05.636Z,14.35
2023-04-29T16:32:25.145Z,14.28
2023-04-29T16:37:44.718Z,14.24
2023-04-29T16:43:03.400Z,14.24
2023-04-29T16:48:22.869Z,14.17
2023-04-29T16:53:42.112Z,14.11
2023-04-29T17:04:20.373Z,14.08
2023-04-29T17:09:39.875Z,14.04
2023-04-29T17:14:58.856Z,13.97
2023-04-29T17:25:36.811Z,13.88
2023-04-29T17:30:56.228Z,13.81
2023-04-29T17:36:15.317Z,13.74
2023-04-29T17:41:34.659Z,13.73
2023-04-29T17:46:54.258Z,13.71
2023-04-29T17:52:14.013Z,13.67
2023-04-29T17:57:33.605Z,13.6
2023-04-29T18:02:52.894Z,13.51
2023-04-29T18:08:11.838Z,13.46
2023-04-29T18:13:31.067Z,13.4
2023-04-29T18:18:50.176Z,13.34
2023-04-29T18:24:09.893Z,13.32
2023-04-29T18:29:29.241Z,13.19
2023-04-29T18:45:51.927Z,13.03
2023-04-29T18:51:10.974Z,12.99
2023-04-29T18:56:30.421Z,12.93
2023-04-29T19:01:57.349Z,12.82
2023-04-29T19:07:08.045Z,12.8
2023-04-29T19:12:35.392Z,12.75
2023-04-29T19:17:47.355Z,12.72
2023-04-29T19:23:06.475Z,12.65
2023-04-29T19:28:25.392Z,12.62
2023-04-29T19:33:44.962Z,12.55
2023-04-29T19:39:03.814Z,12.52
2023-04-29T19:44:23.224Z,12.48
2023-04-29T19:49:42.966Z,12.45
2023-04-29T19:55:01.909Z,12.41
2023-04-29T20:10:59.595Z,12.25
2023-04-29T20:21:37.929Z,12.14
2023-04-29T20:26:57.369Z,12.13
2023-04-29T20:37:35.279Z,12.08
2023-04-29T20:42:54.258Z,12.04
2023-04-29T20:53:32.919Z,11.97
2023-04-29T20:58:51.992Z,11.93
2023-04-29T21:04:11.694Z,11.87
2023-04-29T21:09:30.976Z,11.85
2023-04-29T21:14:50.393Z,11.81
2023-04-29T21:20:09.943Z,11.74
2023-04-29T21:25:29.583Z,11.74
2023-04-29T21:36:07.283Z,11.67
2023-04-29T21:41:27.038Z,11.66
2023-04-29T21:46:46.619Z,11.6
2023-04-29T21:52:05.857Z,11.6
2023-04-29T21:57:32.142Z,11.57
2023-04-29T22:02:44.336Z,11.54
2023-04-29T22:08:03.190Z,11.5
2023-04-29T22:13:21.932Z,11.46
2023-04-29T22:18:41.286Z,11.47
2023-04-29T22:24:00.597Z,11.41
2023-04-29T22:34:38.863Z,11.37
2023-04-29T22:39:57.688Z,11.33
2023-04-29T22:45:17.248Z,11.31
2023-04-29T22:50:36.331Z,11.27
2023-04-29T22:55:55.941Z,11.26
2023-04-29T23:01:15.260Z,11.23
2023-04-29T23:06:34.744Z,11.22
2023-04-29T23:17:13.520Z,11.18
2023-04-29T23:27:52.433Z,11.1
2023-04-29T23:33:12.171Z,11.1
2023-04-29T23:38:31.040Z,11.03
2023-04-29T23:43:49.890Z,11.05
2023-04-29T23:49:09.179Z,11
2023-04-29T23:54:28.200Z,10.98
